Time;durP1;ratioP1;P1;durP2;ratioP2;P2;SDS_P1;SDS_P2;PMS_P1;PMS_P2;Temp;Humidity;BMP_temperature;BMP_pressure;BME280_temperature;BME280_humidity;BME280_pressure;Samples;Min_cycle;Max_cycle;Signal;HPM_P1;HPM_P2
2022/07/02 00:01:37;;;;;;;1999.90;999.90;;;12.40;99.90;;;;;;5050337;28;20058;-76
2022/07/02 00:04:05;;;;;;;1999.90;999.90;;;12.40;99.90;;;;;;5084161;28;20054;-76
2022/07/02 00:06:31;;;;;;;1999.90;999.90;;;12.40;99.90;;;;;;5087124;28;20036;-76
2022/07/02 00:08:59;;;;;;;1999.90;999.90;;;12.40;99.90;;;;;;5069899;28;20549;-76
2022/07/02 00:11:26;;;;;;;1999.90;999.90;;;12.40;99.90;;;;;;5071299;28;20042;-76
2022/07/02 00:13:53;;;;;;;1999.90;999.90;;;12.40;99.90;;;;;;5089791;28;20097;-77
2022/07/02 00:16:19;;;;;;;1999.90;999.90;;;12.40;99.90;;;;;;5066079;28;20044;-76
2022/07/02 00:18:45;;;;;;;1999.90;999.90;;;12.40;99.90;;;;;;5061687;28;20409;-76
2022/07/02 00:21:12;;;;;;;1999.90;999.90;;;12.40;99.90;;;;;;5071978;28;20040;-76
2022/07/02 00:23:38;;;;;;;1999.90;999.90;;;12.40;99.90;;;;;;5056156;28;20044;-76
2022/07/02 00:26:08;;;;;;;1999.90;999.90;;;12.40;99.90;;;;;;5055258;28;20048;-77
2022/07/02 00:28:37;;;;;;;1999.90;999.90;;;12.40;99.90;;;;;;5073004;28;20428;-76
2022/07/02 00:31:03;;;;;;;1999.90;999.90;;;12.40;99.90;;;;;;5058701;28;20439;-76
2022/07/02 00:33:31;;;;;;;1999.90;999.90;;;12.40;99.90;;;;;;5051993;28;20078;-77
2022/07/02 00:35:58;;;;;;;1999.90;999.90;;;12.40;99.90;;;;;;5058552;28;20062;-76
2022/07/02 00:38:24;;;;;;;1999.90;999.90;;;12.40;99.90;;;;;;5079556;28;20167;-76
2022/07/02 00:40:51;;;;;;;1999.90;999.90;;;12.30;99.90;;;;;;5091643;28;20135;-76
2022/07/02 00:43:18;;;;;;;1999.90;999.90;;;12.30;99.90;;;;;;5057804;28;20052;-77
2022/07/02 00:45:44;;;;;;;1999.90;999.90;;;12.30;99.90;;;;;;5059436;28;20044;-77
2022/07/02 00:48:12;;;;;;;1999.90;999.90;;;12.30;99.90;;;;;;5067509;28;20119;-77
2022/07/02 00:50:37;;;;;;;1999.90;999.90;;;12.30;99.90;;;;;;5060873;28;20032;-76
2022/07/02 00:53:03;;;;;;;1999.90;999.90;;;12.30;99.90;;;;;;5093290;28;20555;-77
2022/07/02 00:55:29;;;;;;;1999.90;999.90;;;12.30;99.90;;;;;;5048637;28;20082;-77
2022/07/02 00:57:55;;;;;;;1999.90;999.90;;;12.30;99.90;;;;;;5093066;28;20140;-77
2022/07/02 01:00:20;;;;;;;1999.90;999.90;;;12.30;99.90;;;;;;5057185;28;20449;-77
2022/07/02 01:02:48;;;;;;;1999.90;999.90;;;12.30;99.90;;;;;;5048147;28;20048;-77
2022/07/02 01:05:15;;;;;;;1999.90;999.90;;;12.30;99.90;;;;;;5093491;28;20506;-76
2022/07/02 01:07:44;;;;;;;1999.90;999.90;;;12.30;99.90;;;;;;5085758;28;20535;-77
2022/07/02 01:10:17;;;;;;;1999.90;999.90;;;12.30;99.90;;;;;;5093102;28;20037;-77
2022/07/02 01:12:48;;;;;;;1999.90;999.90;;;12.30;99.90;;;;;;5043079;28;20452;-77
2022/07/02 01:15:15;;;;;;;1999.90;999.90;;;12.30;99.90;;;;;;5096536;28;20604;-77
2022/07/02 01:17:41;;;;;;;1999.90;999.90;;;12.30;99.90;;;;;;5084726;28;20192;-77
2022/07/02 01:20:08;;;;;;;1999.90;999.90;;;12.30;99.90;;;;;;5058913;28;20039;-77
2022/07/02 01:22:39;;;;;;;1999.90;999.90;;;12.30;99.90;;;;;;5076344;28;20044;-77
2022/07/02 01:25:06;;;;;;;1999.90;999.90;;;12.20;99.90;;;;;;5089662;28;20074;-77
2022/07/02 01:27:32;;;;;;;1999.90;999.90;;;12.20;99.90;;;;;;5058405;28;20036;-76
2022/07/02 01:29:58;;;;;;;1999.90;999.90;;;12.20;99.90;;;;;;5094310;28;20040;-77
2022/07/02 01:32:24;;;;;;;1999.90;999.90;;;12.20;99.90;;;;;;5078738;28;20623;-77
2022/07/02 01:34:52;;;;;;;1999.90;999.90;;;12.20;99.90;;;;;;5050575;28;20047;-77
2022/07/02 01:37:19;;;;;;;1999.90;999.90;;;12.10;99.90;;;;;;5074119;28;20047;-77
2022/07/02 01:39:46;;;;;;;1999.90;999.90;;;12.10;99.90;;;;;;5094740;28;20046;-77
2022/07/02 01:42:12;;;;;;;1999.90;999.90;;;12.10;99.90;;;;;;5084678;28;20081;-77
2022/07/02 01:44:40;;;;;;;1999.90;999.90;;;12.10;99.90;;;;;;5089537;28;20127;-77
2022/07/02 01:47:08;;;;;;;1999.90;999.90;;;12.00;99.90;;;;;;5079535;28;20032;-77
2022/07/02 01:49:35;;;;;;;1999.90;999.90;;;12.00;99.90;;;;;;5080737;28;20033;-77
2022/07/02 01:52:02;;;;;;;1999.90;999.90;;;12.00;99.90;;;;;;5081736;28;20044;-77
2022/07/02 01:54:27;;;;;;;1999.90;999.90;;;12.00;99.90;;;;;;5090771;28;20367;-77
2022/07/02 01:56:53;;;;;;;1999.90;999.90;;;12.00;99.90;;;;;;5060583;28;20045;-77
2022/07/02 01:59:19;;;;;;;1999.90;999.90;;;12.00;99.90;;;;;;5058538;28;20051;-77
2022/07/02 02:01:45;;;;;;;1999.90;999.90;;;11.90;99.90;;;;;;5058522;28;20041;-77
2022/07/02 02:04:11;;;;;;;1999.90;999.90;;;11.90;99.90;;;;;;5088815;28;20053;-77
2022/07/02 02:06:40;;;;;;;1999.90;999.90;;;12.00;99.90;;;;;;5048831;28;20513;-77
2022/07/02 02:09:06;;;;;;;1999.90;999.90;;;12.00;99.90;;;;;;5058051;28;20048;-77
2022/07/02 02:11:32;;;;;;;1999.90;999.90;;;11.90;99.90;;;;;;5047691;28;20043;-77
2022/07/02 02:13:59;;;;;;;1999.90;999.90;;;12.00;99.90;;;;;;5042924;28;20040;-77
2022/07/02 02:16:25;;;;;;;1999.90;999.90;;;11.90;99.90;;;;;;5091050;28;20049;-77
2022/07/02 02:18:52;;;;;;;1999.90;999.90;;;11.90;99.90;;;;;;5095159;28;20409;-77
2022/07/02 02:21:18;;;;;;;1999.90;999.90;;;11.90;99.90;;;;;;5056865;28;20119;-77
2022/07/02 02:23:43;;;;;;;1999.90;999.90;;;11.90;99.90;;;;;;5057367;28;20050;-77
2022/07/02 02:26:09;;;;;;;1999.90;999.90;;;11.90;99.90;;;;;;5073482;28;20071;-77
2022/07/02 02:28:34;;;;;;;1999.90;999.90;;;11.90;99.90;;;;;;5074656;28;20044;-77
2022/07/02 02:31:00;;;;;;;1999.90;999.90;;;11.80;99.90;;;;;;5046669;28;20063;-77
2022/07/02 02:33:26;;;;;;;1999.90;999.90;;;11.80;99.90;;;;;;5048848;28;20048;-77
2022/07/02 02:35:51;;;;;;;1999.90;999.90;;;11.90;99.90;;;;;;5057181;28;20044;-77
2022/07/02 02:38:17;;;;;;;1999.90;999.90;;;11.90;99.90;;;;;;5068046;28;20051;-77
2022/07/02 02:40:43;;;;;;;1999.90;999.90;;;11.90;99.90;;;;;;5039424;28;20483;-77
2022/07/02 02:43:08;;;;;;;1999.90;999.90;;;11.90;99.90;;;;;;5055759;28;20095;-77
2022/07/02 02:45:34;;;;;;;1999.90;999.90;;;11.90;99.90;;;;;;5052340;28;20072;-77
2022/07/02 02:48:00;;;;;;;1999.90;999.90;;;11.90;99.90;;;;;;5040586;28;20519;-77
2022/07/02 02:50:25;;;;;;;1999.90;999.90;;;11.90;99.90;;;;;;5091216;28;20605;-77
2022/07/02 02:52:51;;;;;;;1999.90;999.90;;;11.80;99.90;;;;;;5073693;28;20470;-77
2022/07/02 02:55:17;;;;;;;1999.90;999.90;;;11.80;99.90;;;;;;5073622;28;20080;-77
2022/07/02 02:57:43;;;;;;;1999.90;999.90;;;11.80;99.90;;;;;;5052770;28;20048;-77
2022/07/02 03:00:09;;;;;;;1999.90;999.90;;;11.80;99.90;;;;;;5073528;28;20562;-77
2022/07/02 03:02:35;;;;;;;1999.90;999.90;;;11.80;99.90;;;;;;5059189;28;20428;-77
2022/07/02 03:05:01;;;;;;;1999.90;999.90;;;11.80;99.90;;;;;;5074242;28;20032;-77
2022/07/02 03:07:27;;;;;;;1999.90;999.90;;;11.80;99.90;;;;;;5072321;28;20480;-77
2022/07/02 03:09:53;;;;;;;1999.90;999.90;;;11.80;99.90;;;;;;5073145;28;20036;-78
2022/07/02 03:12:18;;;;;;;1999.90;999.90;;;11.90;99.90;;;;;;5074527;28;20036;-77
2022/07/02 03:14:44;;;;;;;1999.90;999.90;;;11.90;99.90;;;;;;5055516;28;20405;-77
2022/07/02 03:17:09;;;;;;;1999.90;999.90;;;11.90;99.90;;;;;;5046725;28;20106;-77
2022/07/02 03:19:35;;;;;;;1999.90;999.90;;;11.90;99.90;;;;;;5055865;28;20158;-77
2022/07/02 03:22:01;;;;;;;1999.90;999.90;;;11.90;99.90;;;;;;5091037;28;20033;-77
2022/07/02 03:24:26;;;;;;;1999.90;999.90;;;11.90;99.90;;;;;;5073165;28;20040;-77
2022/07/02 03:26:52;;;;;;;1999.90;999.90;;;11.90;99.90;;;;;;5083479;28;20068;-77
2022/07/02 03:29:17;;;;;;;1999.90;999.90;;;11.80;99.90;;;;;;5077553;28;20098;-77
2022/07/02 03:31:43;;;;;;;1999.90;999.90;;;11.80;99.90;;;;;;5089266;28;20387;-77
2022/07/02 03:34:09;;;;;;;1999.90;999.90;;;11.80;99.90;;;;;;5073357;28;20040;-77
2022/07/02 03:36:34;;;;;;;1999.90;999.90;;;11.80;99.90;;;;;;5090923;28;22576;-77
2022/07/02 03:39:00;;;;;;;1999.90;999.90;;;11.90;99.90;;;;;;5071493;28;20048;-77
2022/07/02 03:41:25;;;;;;;1999.90;999.90;;;11.90;99.90;;;;;;5057405;28;20190;-77
2022/07/02 03:43:51;;;;;;;1999.90;999.90;;;11.90;99.90;;;;;;5072964;28;20422;-77
2022/07/02 03:46:17;;;;;;;1999.90;999.90;;;11.90;99.90;;;;;;5054854;28;20055;-77
2022/07/02 03:48:44;;;;;;;1999.90;999.90;;;12.00;99.90;;;;;;5073400;28;20040;-77
2022/07/02 03:51:10;;;;;;;1999.90;999.90;;;12.00;99.90;;;;;;5087688;28;20036;-77
2022/07/02 03:53:36;;;;;;;1999.90;999.90;;;12.00;99.90;;;;;;5055319;28;20091;-77
2022/07/02 03:56:02;;;;;;;1999.90;999.90;;;12.00;99.90;;;;;;5081752;28;20541;-78
2022/07/02 03:58:29;;;;;;;1999.90;999.90;;;12.00;99.90;;;;;;5081522;28;20044;-77
2022/07/02 04:00:54;;;;;;;1999.90;999.90;;;12.10;99.90;;;;;;5048024;28;20036;-77
2022/07/02 04:03:20;;;;;;;1999.90;999.90;;;12.20;99.90;;;;;;5054449;28;20044;-77
2022/07/02 04:05:46;;;;;;;1999.90;999.90;;;12.20;99.90;;;;;;5054023;28;20036;-77
2022/07/02 04:08:11;;;;;;;1999.90;999.90;;;12.20;99.90;;;;;;5074468;28;20059;-77
2022/07/02 04:10:37;;;;;;;1999.90;999.90;;;12.30;99.90;;;;;;5093183;28;20082;-77
2022/07/02 04:13:03;;;;;;;1999.90;999.90;;;12.40;99.90;;;;;;5089818;28;20044;-77
2022/07/02 04:15:29;;;;;;;1999.90;999.90;;;12.40;99.90;;;;;;5044896;28;20060;-77
2022/07/02 04:17:54;;;;;;;1999.90;999.90;;;12.40;99.90;;;;;;5041992;28;20466;-77
2022/07/02 04:20:20;;;;;;;1999.90;999.90;;;12.50;99.90;;;;;;5073416;28;20414;-77
2022/07/02 04:22:45;;;;;;;1999.90;999.90;;;12.50;99.90;;;;;;5088699;28;20040;-76
2022/07/02 04:25:11;;;;;;;1999.90;999.90;;;12.50;99.90;;;;;;5073393;28;20114;-77
2022/07/02 04:27:37;;;;;;;1999.90;999.90;;;12.60;99.90;;;;;;5055215;28;20044;-77
2022/07/02 04:30:02;;;;;;;1999.90;999.90;;;12.60;99.90;;;;;;5057552;28;20111;-77
2022/07/02 04:32:28;;;;;;;1999.90;999.90;;;12.70;99.90;;;;;;5056411;28;20044;-77
2022/07/02 04:34:54;;;;;;;1999.90;999.90;;;12.90;99.90;;;;;;5074158;28;20047;-77
2022/07/02 04:37:19;;;;;;;1999.90;999.90;;;13.10;99.90;;;;;;5074143;28;20225;-77
2022/07/02 04:39:45;;;;;;;1999.90;999.90;;;13.10;99.90;;;;;;5071039;28;20962;-76
2022/07/02 04:42:10;;;;;;;1999.90;999.90;;;13.30;99.90;;;;;;5074250;28;20056;-77
2022/07/02 04:44:36;;;;;;;1999.90;999.90;;;13.70;99.90;;;;;;5105133;28;20044;-77
2022/07/02 04:47:02;;;;;;;1999.90;999.90;;;13.70;99.90;;;;;;5067129;28;20040;-77
2022/07/02 04:49:28;;;;;;;1999.90;999.90;;;13.60;99.90;;;;;;5071662;28;20047;-77
2022/07/02 04:51:53;;;;;;;1999.90;999.90;;;13.60;99.90;;;;;;5087259;28;20040;-77
2022/07/02 04:54:19;;;;;;;1999.90;999.90;;;13.50;99.90;;;;;;5047698;28;20040;-77
2022/07/02 04:56:44;;;;;;;1999.90;999.90;;;13.50;99.90;;;;;;5043774;28;20478;-76
2022/07/02 04:59:10;;;;;;;1999.90;999.90;;;13.50;99.90;;;;;;5065243;28;20173;-78
2022/07/02 05:01:36;;;;;;;1999.90;999.90;;;13.50;99.90;;;;;;5074950;28;20044;-78
2022/07/02 05:04:02;;;;;;;1999.90;999.90;;;13.60;99.90;;;;;;5044866;28;20090;-77
2022/07/02 05:06:27;;;;;;;1999.90;999.90;;;13.60;99.90;;;;;;5063331;28;20044;-77
2022/07/02 05:08:53;;;;;;;1999.90;999.90;;;13.70;99.90;;;;;;5098775;28;20032;-77
2022/07/02 05:11:19;;;;;;;1999.90;999.90;;;13.80;99.90;;;;;;5069807;28;20036;-77
2022/07/02 05:13:49;;;;;;;1999.90;999.90;;;14.00;99.90;;;;;;5052149;28;20055;-77
2022/07/02 05:16:16;;;;;;;1999.90;999.90;;;14.20;99.90;;;;;;5069141;28;20465;-77
2022/07/02 05:18:41;;;;;;;1999.90;999.90;;;14.40;99.90;;;;;;5061593;28;20525;-77
2022/07/02 05:21:07;;;;;;;1999.90;999.90;;;14.90;99.90;;;;;;5105205;28;20039;-77
2022/07/02 05:23:33;;;;;;;1999.90;999.90;;;15.30;99.90;;;;;;5079896;28;20040;-77
2022/07/02 05:25:59;;;;;;;1999.90;999.90;;;15.30;99.90;;;;;;5103105;28;20040;-77
2022/07/02 05:28:24;;;;;;;1999.90;999.90;;;15.30;99.90;;;;;;5069664;28;20028;-77
2022/07/02 05:30:51;;;;;;;1999.90;999.90;;;15.30;99.90;;;;;;5078091;28;20039;-77
2022/07/02 05:33:17;;;;;;;1999.90;999.90;;;15.30;99.90;;;;;;5056559;28;20067;-78
2022/07/02 05:35:42;;;;;;;1999.90;999.90;;;15.20;99.90;;;;;;5088575;28;20497;-78
2022/07/02 05:38:08;;;;;;;1999.90;999.90;;;15.20;99.90;;;;;;5060586;28;20051;-77
2022/07/02 05:40:34;;;;;;;1999.90;999.90;;;15.20;99.90;;;;;;5066515;28;20063;-77
2022/07/02 05:43:00;;;;;;;1999.90;999.90;;;15.20;99.90;;;;;;5067263;28;20615;-78
2022/07/02 05:45:27;;;;;;;1999.90;999.90;;;15.30;99.90;;;;;;5049767;28;20564;-77
2022/07/02 05:47:52;;;;;;;1999.90;999.90;;;15.40;99.90;;;;;;5056082;28;20127;-78
2022/07/02 05:50:18;;;;;;;1999.90;999.90;;;15.50;99.90;;;;;;5075575;28;20115;-78
2022/07/02 05:52:44;;;;;;;1999.90;999.90;;;15.60;99.90;;;;;;5063542;28;20433;-78
2022/07/02 05:55:10;;;;;;;1999.90;999.90;;;15.70;99.90;;;;;;5059853;28;20580;-79
2022/07/02 05:57:36;;;;;;;1999.90;999.90;;;15.80;99.90;;;;;;5076198;28;20040;-77
2022/07/02 06:00:03;;;;;;;1999.90;999.90;;;15.80;99.90;;;;;;5079962;28;20047;-78
2022/07/02 06:02:29;;;;;;;1999.90;999.90;;;16.00;99.90;;;;;;5058319;28;20044;-78
2022/07/02 06:04:55;;;;;;;1999.90;999.90;;;16.10;99.90;;;;;;5041722;28;20041;-78
2022/07/02 06:10:06;;;;;;;1999.90;999.90;;;17.10;99.90;;;;;;5072400;28;20405;-78
2022/07/02 06:12:32;;;;;;;1999.90;999.90;;;18.00;99.90;;;;;;5098031;28;20618;-78
2022/07/02 06:14:57;;;;;;;1999.90;999.90;;;19.00;99.90;;;;;;5064774;28;20047;-78
2022/07/02 06:17:23;;;;;;;1999.90;999.90;;;19.90;99.90;;;;;;5101955;28;20502;-78
2022/07/02 06:19:50;;;;;;;1999.90;999.90;;;20.70;99.90;;;;;;5105910;28;20036;-78
2022/07/02 06:22:16;;;;;;;1999.90;999.90;;;21.10;99.90;;;;;;5060521;28;20486;-78
2022/07/02 06:24:42;;;;;;;1999.90;999.90;;;21.60;99.90;;;;;;5090878;28;20151;-78
2022/07/02 06:27:07;;;;;;;1999.90;999.90;;;22.00;99.90;;;;;;5065420;28;20084;-79
2022/07/02 06:29:33;;;;;;;1999.90;999.90;;;22.10;99.90;;;;;;5077289;28;20759;-78
2022/07/02 06:31:59;;;;;;;1999.90;999.90;;;22.10;99.90;;;;;;5058149;28;20032;-79
2022/07/02 06:34:24;;;;;;;1999.90;999.90;;;22.20;99.90;;;;;;5067676;28;20501;-78
2022/07/02 06:36:50;;;;;;;1999.90;999.90;;;22.50;99.90;;;;;;5071244;28;20083;-79
2022/07/02 06:39:16;;;;;;;1999.90;999.90;;;22.80;99.90;;;;;;5083550;28;20130;-79
2022/07/02 06:44:26;;;;;;;1999.90;999.90;;;22.90;99.90;;;;;;5073669;28;20094;-79
2022/07/02 06:46:51;;;;;;;1999.90;999.90;;;23.10;99.90;;;;;;5057263;28;20032;-79
2022/07/02 06:49:18;;;;;;;1999.90;999.90;;;23.50;99.90;;;;;;5092706;28;20043;-79
2022/07/02 06:51:44;;;;;;;1999.90;999.90;;;23.60;99.90;;;;;;5044332;28;20044;-79
2022/07/02 06:54:10;;;;;;;1999.90;999.90;;;23.80;99.90;;;;;;5057558;28;20054;-79
2022/07/02 06:56:36;;;;;;;1999.90;999.90;;;23.50;98.80;;;;;;5077172;28;20040;-79
2022/07/02 06:59:06;;;;;;;1999.90;999.90;;;23.30;99.50;;;;;;5060580;28;20047;-78
2022/07/02 07:01:32;;;;;;;1999.90;999.90;;;23.30;99.00;;;;;;5061414;28;20553;-79
2022/07/02 07:03:57;;;;;;;1999.90;999.90;;;23.40;99.40;;;;;;5061681;28;20044;-79
2022/07/02 07:06:24;;;;;;;1999.90;999.90;;;23.60;97.90;;;;;;5057502;28;20082;-80
2022/07/02 07:08:53;;;;;;;1999.90;999.90;;;23.70;98.70;;;;;;5061881;28;20044;-79
2022/07/02 07:11:22;;;;;;;1999.90;999.90;;;23.80;97.60;;;;;;5088548;28;20048;-79
2022/07/02 07:13:49;;;;;;;1999.90;999.90;;;23.80;97.80;;;;;;5040439;28;20044;-78
2022/07/02 07:16:15;;;;;;;1999.90;999.90;;;23.70;97.30;;;;;;5057796;28;20494;-79
2022/07/02 07:18:45;;;;;;;1999.90;999.90;;;23.50;96.00;;;;;;5058134;28;20049;-80
2022/07/02 07:21:10;;;;;;;1999.90;999.90;;;23.40;97.80;;;;;;5058291;28;20051;-79
2022/07/02 07:23:36;;;;;;;1999.90;999.90;;;23.50;97.60;;;;;;5093291;28;20040;-79
2022/07/02 07:26:02;;;;;;;1999.90;999.90;;;23.50;95.80;;;;;;5053237;28;20060;-80
2022/07/02 07:28:27;;;;;;;1999.90;999.90;;;23.30;94.50;;;;;;5050036;28;20060;-79
2022/07/02 07:30:54;;;;;;;1999.90;999.90;;;23.10;95.40;;;;;;5085159;28;20040;-79
2022/07/02 07:33:20;;;;;;;1999.90;999.90;;;23.10;95.50;;;;;;5086601;28;20084;-79
2022/07/02 07:35:46;;;;;;;1999.90;999.90;;;23.10;95.50;;;;;;5070881;28;20055;-79
2022/07/02 07:38:11;;;;;;;1999.90;999.90;;;23.10;96.30;;;;;;5070773;28;20194;-79
2022/07/02 07:40:37;;;;;;;1999.90;999.90;;;23.40;96.40;;;;;;5087450;28;20070;-79
2022/07/02 07:43:03;;;;;;;1999.90;999.90;;;24.00;96.10;;;;;;5083726;28;20051;-80
2022/07/02 07:45:29;;;;;;;1999.90;999.90;;;24.20;93.10;;;;;;5086780;28;20032;-79
2022/07/02 07:47:55;;;;;;;1999.90;999.90;;;24.10;93.10;;;;;;5083214;28;20033;-79
2022/07/02 07:50:21;;;;;;;1999.90;999.90;;;24.10;93.50;;;;;;5063785;28;20028;-80
2022/07/02 07:52:47;;;;;;;1999.90;999.90;;;24.20;93.90;;;;;;5103962;28;20063;-79
2022/07/02 07:55:12;;;;;;;1999.90;999.90;;;24.10;92.20;;;;;;5070010;28;20397;-79
2022/07/02 07:57:38;;;;;;;1999.90;999.90;;;24.20;88.70;;;;;;5070251;28;20036;-80
2022/07/02 08:00:05;;;;;;;1999.90;999.90;;;24.30;92.70;;;;;;5070164;28;20060;-79
2022/07/02 08:02:31;;;;;;;1999.90;999.90;;;24.50;92.70;;;;;;5052606;28;20032;-80
2022/07/02 08:04:56;;;;;;;1999.90;999.90;;;24.50;90.20;;;;;;5087525;28;20131;-79
2022/07/02 08:07:22;;;;;;;1999.90;999.90;;;24.20;90.90;;;;;;5050897;28;20232;-79
2022/07/02 08:09:52;;;;;;;1999.90;999.90;;;24.10;90.70;;;;;;5084012;28;20051;-80
2022/07/02 08:12:22;;;;;;;1999.90;999.90;;;24.10;90.30;;;;;;5049971;28;20573;-79
2022/07/02 08:14:48;;;;;;;1999.90;999.90;;;23.90;90.90;;;;;;5086868;28;20035;-79
2022/07/02 08:17:15;;;;;;;1999.90;999.90;;;24.00;90.60;;;;;;5086447;28;20401;-80
2022/07/02 08:19:41;;;;;;;1999.90;999.90;;;24.10;91.00;;;;;;5090324;28;20039;-80
2022/07/02 08:22:06;;;;;;;1999.90;999.90;;;24.10;91.20;;;;;;5053613;28;20375;-80
2022/07/02 08:24:32;;;;;;;1999.90;999.90;;;24.20;91.80;;;;;;5070044;28;20040;-79
2022/07/02 08:26:58;;;;;;;1999.90;999.90;;;24.20;89.90;;;;;;5065271;28;20123;-81
2022/07/02 08:29:24;;;;;;;1999.90;999.90;;;24.00;88.10;;;;;;5056250;28;20626;-79
2022/07/02 08:31:50;;;;;;;1999.90;999.90;;;23.80;85.60;;;;;;5064303;28;21311;-80
2022/07/02 08:34:16;;;;;;;1999.90;999.90;;;23.80;86.10;;;;;;5059452;28;20502;-80
2022/07/02 08:36:41;;;;;;;1999.90;999.90;;;23.70;88.00;;;;;;5096506;28;20044;-80
2022/07/02 08:39:07;;;;;;;1999.90;999.90;;;23.70;90.10;;;;;;5051146;28;20051;-79
2022/07/02 08:41:33;;;;;;;1999.90;999.90;;;24.10;89.20;;;;;;5050656;28;20052;-79
2022/07/02 08:44:01;;;;;;;1999.90;999.90;;;24.40;88.50;;;;;;5102152;28;20047;-79
2022/07/02 08:46:28;;;;;;;1999.90;999.90;;;24.40;86.30;;;;;;5069757;28;20043;-79
2022/07/02 08:48:55;;;;;;;1999.90;999.90;;;24.30;85.70;;;;;;5089577;28;20402;-80
2022/07/02 08:51:21;;;;;;;1999.90;999.90;;;24.40;87.50;;;;;;5102603;28;20047;-80
2022/07/02 08:53:47;;;;;;;1999.90;999.90;;;24.60;87.60;;;;;;5086914;28;20406;-80
2022/07/02 08:56:14;;;;;;;1999.90;999.90;;;24.70;87.90;;;;;;5053756;28;20044;-79
2022/07/02 08:58:40;;;;;;;1999.90;999.90;;;25.00;83.80;;;;;;5064404;28;20615;-79
2022/07/02 09:01:10;;;;;;;1999.90;999.90;;;25.30;85.00;;;;;;5105956;28;20039;-80
2022/07/02 09:03:37;;;;;;;1999.90;999.90;;;25.40;81.40;;;;;;5106866;28;20050;-79
2022/07/02 09:06:05;;;;;;;1999.90;999.90;;;25.40;77.60;;;;;;5073386;28;20043;-79
2022/07/02 09:08:31;;;;;;;1999.90;999.90;;;25.40;76.60;;;;;;5064095;28;20064;-80
2022/07/02 09:10:58;;;;;;;1999.90;999.90;;;25.30;76.20;;;;;;5072286;28;20522;-80
2022/07/02 09:13:24;;;;;;;1999.90;999.90;;;25.10;76.10;;;;;;5070648;28;20093;-80
2022/07/02 09:15:52;;;;;;;1999.90;999.90;;;25.30;79.10;;;;;;5050054;28;20036;-79
2022/07/02 09:18:18;;;;;;;1999.90;999.90;;;25.40;78.30;;;;;;5084876;27;20052;-80
2022/07/02 09:20:44;;;;;;;1999.90;999.90;;;25.70;75.60;;;;;;5054438;28;20040;-79
2022/07/02 09:23:20;;;;;;;1999.90;999.90;;;25.40;73.80;;;;;;5050161;28;20455;-79
2022/07/02 09:25:47;;;;;;;1999.90;999.90;;;25.00;72.50;;;;;;5076031;28;20040;-81
2022/07/02 09:28:14;;;;;;;1999.90;999.90;;;24.60;72.40;;;;;;5041449;28;20045;-80
2022/07/02 09:30:40;;;;;;;1999.90;999.90;;;24.60;73.40;;;;;;5077597;28;20458;-81
2022/07/02 09:33:28;;;;;;;1999.90;999.90;;;24.70;75.10;;;;;;5054271;28;20044;-79
2022/07/02 09:35:54;;;;;;;1999.90;999.90;;;25.00;74.70;;;;;;5067873;28;20067;-80
2022/07/02 09:38:20;;;;;;;1999.90;999.90;;;24.90;71.00;;;;;;5075556;28;20041;-80
2022/07/02 09:40:57;;;;;;;1999.90;999.90;;;24.80;69.50;;;;;;5048454;28;20048;-81
2022/07/02 09:43:31;;;;;;;1999.90;999.90;;;24.70;69.70;;;;;;5049221;28;20071;-79
2022/07/02 09:46:00;;;;;;;1999.90;999.90;;;24.70;70.90;;;;;;5057899;28;20135;-80
2022/07/02 09:48:26;;;;;;;1999.90;999.90;;;24.50;68.80;;;;;;5047351;28;20079;-79
2022/07/02 09:50:52;;;;;;;1999.90;999.90;;;24.20;68.50;;;;;;5059438;28;20035;-79
2022/07/02 09:53:18;;;;;;;1999.90;999.90;;;24.20;70.50;;;;;;5066264;28;20168;-80
2022/07/02 09:55:49;;;;;;;1999.90;999.90;;;24.40;71.70;;;;;;5067665;28;20075;-80
2022/07/02 09:58:26;;;;;;;1999.90;999.90;;;24.80;72.40;;;;;;5081487;28;20089;-79
2022/07/02 10:00:53;;;;;;;1999.90;999.90;;;25.00;70.30;;;;;;5083061;28;20558;-80
2022/07/02 10:03:20;;;;;;;1999.90;999.90;;;24.80;67.20;;;;;;5081822;28;20036;-79
2022/07/02 10:05:49;;;;;;;1999.90;999.90;;;24.80;67.20;;;;;;5085049;28;20498;-78
2022/07/02 10:08:16;;;;;;;1999.90;999.90;;;24.70;66.40;;;;;;5076486;28;20048;-79
2022/07/02 10:10:42;;;;;;;1999.90;999.90;;;24.50;66.40;;;;;;5054490;28;20032;-79
2022/07/02 10:13:10;;;;;;;1999.90;999.90;;;24.10;68.30;;;;;;5058962;28;20127;-79
2022/07/02 10:15:39;;;;;;;1999.90;999.90;;;24.00;68.30;;;;;;5056104;28;20487;-80
2022/07/02 10:18:05;;;;;;;1999.90;999.90;;;24.10;70.30;;;;;;5076258;28;20386;-79
2022/07/02 10:20:33;;;;;;;1999.90;999.90;;;24.20;71.10;;;;;;5041939;28;20043;-80
2022/07/02 10:23:05;;;;;;;1999.90;999.90;;;24.50;72.40;;;;;;5051550;28;20050;-79
2022/07/02 10:25:32;;;;;;;1999.90;999.90;;;24.60;69.40;;;;;;5071102;28;20040;-75
2022/07/02 10:27:58;;;;;;;1999.90;999.90;;;24.50;70.40;;;;;;5063547;28;20044;-80
2022/07/02 10:33:20;;;;;;;1999.90;999.90;;;24.20;70.10;;;;;;5062110;28;20465;-80
2022/07/02 10:35:48;;;;;;;1999.90;999.90;;;24.20;66.90;;;;;;5094066;28;20550;-80
2022/07/02 10:38:14;;;;;;;1999.90;999.90;;;24.10;68.20;;;;;;5088621;28;20066;-79
2022/07/02 10:40:47;;;;;;;1999.90;999.90;;;24.20;66.60;;;;;;5060816;28;20064;-80
2022/07/02 10:43:14;;;;;;;1999.90;999.90;;;24.40;70.40;;;;;;5036576;28;20123;-79
2022/07/02 10:45:40;;;;;;;1999.90;999.90;;;24.70;69.80;;;;;;5070002;28;20041;-80
2022/07/02 10:48:06;;;;;;;1999.90;999.90;;;24.90;70.50;;;;;;5037195;28;20032;-80
2022/07/02 10:50:35;;;;;;;1999.90;999.90;;;25.10;67.10;;;;;;5089301;28;20036;-79
2022/07/02 10:53:14;;;;;;;1999.90;999.90;;;25.10;68.60;;;;;;5087847;28;20032;-80
2022/07/02 10:55:42;;;;;;;1999.90;999.90;;;25.30;70.00;;;;;;5054652;28;20036;-79
2022/07/02 10:58:16;;;;;;;1999.90;999.90;;;25.50;65.60;;;;;;5067290;28;20513;-80
2022/07/02 11:00:42;;;;;;;1999.90;999.90;;;25.20;64.70;;;;;;5054350;28;20040;-79
2022/07/02 11:03:25;;;;;;;1999.90;999.90;;;24.70;63.80;;;;;;5066541;28;20536;-79
2022/07/02 11:05:58;;;;;;;1999.90;999.90;;;24.60;66.60;;;;;;5074842;28;20654;-79
2022/07/02 11:08:44;;;;;;;1999.90;999.90;;;24.60;64.60;;;;;;5085075;28;20120;-78
2022/07/02 11:11:17;;;;;;;1999.90;999.90;;;24.70;67.10;;;;;;5061272;28;20455;-79
2022/07/02 11:13:54;;;;;;;1999.90;999.90;;;25.00;65.20;;;;;;5089219;28;20542;-81
2022/07/02 11:16:21;;;;;;;1999.90;999.90;;;25.00;64.00;;;;;;5077985;28;20105;-79
2022/07/02 11:18:48;;;;;;;1999.90;999.90;;;25.00;62.60;;;;;;5070951;28;20134;-80
2022/07/02 11:21:14;;;;;;;1999.90;999.90;;;24.90;63.30;;;;;;5070939;28;20100;-79
2022/07/02 11:23:40;;;;;;;1999.90;999.90;;;24.60;61.20;;;;;;5087307;28;20405;-79
2022/07/02 11:26:09;;;;;;;1999.90;999.90;;;24.20;62.80;;;;;;5070571;28;20036;-79
2022/07/02 11:28:38;;;;;;;1999.90;999.90;;;23.80;63.50;;;;;;5087862;28;20036;-79
2022/07/02 11:31:05;;;;;;;1999.90;999.90;;;23.40;63.60;;;;;;5081893;28;20059;-79
2022/07/02 11:33:34;;;;;;;1999.90;999.90;;;23.20;64.50;;;;;;5053858;28;20544;-79
2022/07/02 11:36:00;;;;;;;1999.90;999.90;;;23.00;64.80;;;;;;5070772;28;20069;-79
2022/07/02 11:38:26;;;;;;;1999.90;999.90;;;23.10;66.50;;;;;;5080063;28;20141;-79
2022/07/02 11:40:51;;;;;;;1999.90;999.90;;;23.50;66.90;;;;;;5064285;28;20135;-78
2022/07/02 11:43:19;;;;;;;1999.90;999.90;;;24.00;66.80;;;;;;5070417;28;20051;-80
2022/07/02 11:45:48;;;;;;;1999.90;999.90;;;24.30;66.90;;;;;;5053908;28;20153;-78
2022/07/02 11:48:20;;;;;;;1999.90;999.90;;;24.30;62.80;;;;;;5073712;28;20462;-79
2022/07/02 11:50:58;;;;;;;1999.90;999.90;;;24.10;64.20;;;;;;5069800;28;20085;-78
2022/07/02 11:53:24;;;;;;;1999.90;999.90;;;24.10;66.50;;;;;;5098862;28;20044;-78
2022/07/02 11:55:50;;;;;;;1999.90;999.90;;;24.00;64.80;;;;;;5087170;28;20371;-78
2022/07/02 11:58:17;;;;;;;1999.90;999.90;;;23.80;63.30;;;;;;5070822;28;20042;-78
2022/07/02 12:00:42;;;;;;;1999.90;999.90;;;23.60;65.70;;;;;;5051883;28;20031;-79
2022/07/02 12:03:13;;;;;;;1999.90;999.90;;;23.70;68.30;;;;;;5104711;28;20398;-79
2022/07/02 12:05:52;;;;;;;1999.90;999.90;;;24.00;65.50;;;;;;5088846;28;20434;-79